Time,TemperatureF,DewpointF,PressureIn,WindDirection,WindDirectionDegrees,WindSpeedMPH,WindSpeedGustMPH,Humidity,HourlyPrecipIn,Conditions,Clouds,dailyrainin,SoftwareType,DateUTC
2013-03-13 00:00:00,28.3,24.7,29.88,West,276,2.0,5.0,86,0.00,,---,0.01,VWS V14.01,2013-03-13 04:00:00,
2013-03-13 00:05:00,28.1,24.5,29.88,WSW,244,0.0,3.0,86,0.00,,---,0.01,VWS V14.01,2013-03-13 04:05:00,
2013-03-13 00:10:00,27.9,24.3,29.88,SSW,201,0.0,4.0,86,0.00,,---,0.00,VWS V14.01,2013-03-13 04:10:00,
2013-03-13 00:15:00,27.8,24.2,29.88,SW,225,1.0,4.0,86,0.00,,---,0.00,VWS V14.01,2013-03-13 04:15:00,
2013-03-13 00:20:00,27.6,24.2,29.88,West,259,0.0,5.0,87,0.00,,---,0.00,VWS V14.01,2013-03-13 04:20:00,
2013-03-13 00:25:00,27.5,24.1,29.88,SW,224,1.0,2.0,87,0.00,,---,0.00,VWS V14.01,2013-03-13 04:25:00,
2013-03-13 00:30:00,27.4,24.0,29.88,SW,214,0.0,4.0,87,0.00,,---,0.00,VWS V14.01,2013-03-13 04:30:00,
2013-03-13 00:35:00,27.4,24.0,29.88,West,275,0.0,2.0,87,0.00,,---,0.00,VWS V14.01,2013-03-13 04:35:00,
2013-03-13 00:40:00,27.4,24.0,29.88,SSE,155,0.0,3.0,87,0.00,,---,0.00,VWS V14.01,2013-03-13 04:40:00,
2013-03-13 00:45:00,27.3,24.0,29.88,SW,219,2.0,4.0,87,0.00,,---,0.00,VWS V14.01,2013-03-13 04:45:00,
2013-03-13 00:50:00,27.2,23.9,29.88,West,266,2.0,3.0,87,0.00,,---,0.00,VWS V14.01,2013-03-13 04:50:00,
2013-03-13 00:55:00,27.1,23.8,29.88,SW,232,0.0,5.0,87,0.00,,---,0.00,VWS V14.01,2013-03-13 04:55:00,
2013-03-13 01:00:00,27.0,23.6,29.88,West,263,2.0,6.0,87,0.00,,---,0.00,VWS V14.01,2013-03-13 05:00:00,
2013-03-13 01:05:00,27.0,23.6,29.88,WNW,295,3.0,5.0,87,0.00,,---,0.00,VWS V14.01,2013-03-13 05:05:00,
2013-03-13 01:10:00,26.9,23.6,29.88,West,277,3.0,4.0,87,0.00,,---,0.00,VWS V14.01,2013-03-13 05:10:00,
2013-03-13 01:15:00,26.9,23.6,29.88,SW,222,1.0,4.0,87,0.00,,---,0.00,VWS V14.01,2013-03-13 05:15:00,
2013-03-13 01:20:00,26.9,23.6,29.88,WSW,250,0.0,4.0,87,0.00,,---,0.00,VWS V14.01,2013-03-13 05:20:00,
2013-03-13 01:25:00,26.9,23.3,29.88,West,267,1.0,5.0,86,0.00,,---,0.00,VWS V14.01,2013-03-13 05:25:00,
2013-03-13 01:30:00,27.0,23.4,29.88,SW,235,0.0,6.0,86,0.00,,---,0.00,VWS V14.01,2013-03-13 05:30:00,
2013-03-13 01:35:00,27.0,23.4,29.88,SSW,213,1.0,3.0,86,0.00,,---,0.00,VWS V14.01,2013-03-13 05:35:00,
2013-03-13 01:40:00,27.0,23.4,29.88,SW,228,4.0,4.0,86,0.00,,---,0.00,VWS V14.01,2013-03-13 05:40:00,
2013-03-13 01:45:00,26.9,23.3,29.88,WSW,249,2.0,2.0,86,0.00,,---,0.00,VWS V14.01,2013-03-13 05:45:00,
2013-03-13 01:50:00,26.9,23.3,29.88,WNW,299,3.0,6.0,86,0.00,,---,0.00,VWS V14.01,2013-03-13 05:50:00,
2013-03-13 01:55:00,26.9,23.3,29.88,SSW,211,0.0,2.0,86,0.00,,---,0.00,VWS V14.01,2013-03-13 05:55:00,
2013-03-13 02:00:00,26.9,23.3,29.88,WSW,243,0.0,3.0,86,0.00,,---,0.00,VWS V14.01,2013-03-13 06:00:00,
2013-03-13 02:05:00,26.9,23.3,29.88,West,273,0.0,2.0,86,0.00,,---,0.00,VWS V14.01,2013-03-13 06:05:00,
2013-03-13 02:10:00,27.0,23.4,29.88,WSW,243,1.0,5.0,86,0.00,,---,0.00,VWS V14.01,2013-03-13 06:10:00,
2013-03-13 02:15:00,26.9,23.3,29.88,WSW,240,2.0,5.0,86,0.00,,---,0.00,VWS V14.01,2013-03-13 06:15:00,
2013-03-13 02:20:00,27.0,23.4,29.88,SW,229,0.0,5.0,86,0.00,,---,0.00,VWS V14.01,2013-03-13 06:20:00,
2013-03-13 02:25:00,26.9,23.3,29.88,WSW,245,1.0,3.0,86,0.00,,---,0.00,VWS V14.01,2013-03-13 06:25:00,
2013-03-13 02:30:00,26.9,23.6,29.88,WNW,284,1.0,4.0,87,0.00,,---,0.00,VWS V14.01,2013-03-13 06:30:00,
2013-03-13 02:35:00,26.9,23.6,29.88,WSW,238,2.0,5.0,87,0.00,,---,0.00,VWS V14.01,2013-03-13 06:35:00,
2013-03-13 02:40:00,27.0,23.6,29.88,WNW,287,2.0,6.0,87,0.00,,---,0.00,VWS V14.01,2013-03-13 06:40:00,
2013-03-13 02:45:00,27.0,23.6,29.88,West,264,0.0,3.0,87,0.00,,---,0.00,VWS V14.01,2013-03-13 06:45:00,
2013-03-13 02:50:00,27.1,24.0,29.89,WNW,286,1.0,2.0,88,0.00,,---,0.00,VWS V14.01,2013-03-13 06:50:00,
2013-03-13 02:55:00,27.0,24.2,29.89,North,356,4.0,4.0,89,0.00,,---,0.00,VWS V14.01,2013-03-13 06:55:00,
2013-03-13 03:00:00,26.9,24.1,29.89,WNW,292,5.0,5.0,89,0.00,,---,0.00,VWS V14.01,2013-03-13 07:00:00,
2013-03-13 03:05:00,26.7,23.4,29.89,WNW,282,4.0,9.0,87,0.00,,---,0.00,VWS V14.01,2013-03-13 07:05:00,
2013-03-13 03:10:00,26.4,22.5,29.89,NW,316,3.0,9.0,85,0.00,,---,0.00,VWS V14.01,2013-03-13 07:10:00,
2013-03-13 03:15:00,26.1,21.9,29.89,WNW,298,5.0,11.0,84,0.00,,---,0.00,VWS V14.01,2013-03-13 07:15:00,
2013-03-13 03:20:00,25.8,21.6,29.89,NNW,339,5.0,6.0,84,0.00,,---,0.00,VWS V14.01,2013-03-13 07:20:00,
2013-03-13 03:25:00,25.7,21.5,29.90,WNW,300,0.0,5.0,84,0.00,,---,0.00,VWS V14.01,2013-03-13 07:25:00,
2013-03-13 03:30:00,25.4,21.0,29.90,WNW,300,6.0,9.0,83,0.00,,---,0.00,VWS V14.01,2013-03-13 07:30:00,
2013-03-13 03:35:00,25.2,20.8,29.90,WNW,296,1.0,8.0,83,0.00,,---,0.00,VWS V14.01,2013-03-13 07:35:00,
2013-03-13 03:40:00,25.0,20.9,29.90,North,350,4.0,7.0,84,0.00,,---,0.00,VWS V14.01,2013-03-13 07:40:00,
2013-03-13 03:45:00,24.9,20.8,29.89,NNE,13,2.0,7.0,84,0.00,,---,0.00,VWS V14.01,2013-03-13 07:45:00,
2013-03-13 03:50:00,24.8,20.7,29.90,NW,318,4.0,10.0,84,0.00,,---,0.00,VWS V14.01,2013-03-13 07:50:00,
2013-03-13 03:55:00,24.7,20.6,29.90,NNW,335,1.0,5.0,84,0.00,,---,0.00,VWS V14.01,2013-03-13 07:55:00,
2013-03-13 04:00:00,24.6,20.2,29.90,SW,233,0.0,3.0,83,0.00,,---,0.00,VWS V14.01,2013-03-13 08:00:00,
2013-03-13 04:05:00,24.5,20.1,29.90,SW,231,3.0,4.0,83,0.00,,---,0.00,VWS V14.01,2013-03-13 08:05:00,
2013-03-13 04:10:00,24.4,19.7,29.91,West,264,3.0,9.0,82,0.00,,---,0.00,VWS V14.01,2013-03-13 08:10:00,
2013-03-13 04:15:00,24.3,19.6,29.90,West,281,2.0,5.0,82,0.00,,---,0.00,VWS V14.01,2013-03-13 08:15:00,
2013-03-13 04:20:00,24.3,19.6,29.90,NNW,342,0.0,10.0,82,0.00,,---,0.00,VWS V14.01,2013-03-13 08:20:00,
2013-03-13 04:25:00,24.2,19.5,29.91,WNW,300,0.0,6.0,82,0.00,,---,0.00,VWS V14.01,2013-03-13 08:25:00,
2013-03-13 04:30:00,24.2,19.5,29.91,SW,225,5.0,5.0,82,0.00,,---,0.00,VWS V14.01,2013-03-13 08:30:00,
2013-03-13 04:35:00,24.2,19.5,29.90,NW,307,4.0,8.0,82,0.00,,---,0.00,VWS V14.01,2013-03-13 08:35:00,
2013-03-13 04:40:00,24.2,19.8,29.91,NW,323,0.0,8.0,83,0.00,,---,0.00,VWS V14.01,2013-03-13 08:40:00,
2013-03-13 04:45:00,24.2,19.8,29.90,NW,311,2.0,7.0,83,0.00,,---,0.00,VWS V14.01,2013-03-13 08:45:00,
2013-03-13 04:50:00,24.1,19.7,29.91,WSW,240,2.0,5.0,83,0.00,,---,0.00,VWS V14.01,2013-03-13 08:50:00,
2013-03-13 04:55:00,24.0,18.7,29.91,WSW,257,6.0,9.0,80,0.00,,---,0.00,VWS V14.01,2013-03-13 08:55:00,
2013-03-13 05:00:00,23.9,18.6,29.91,SW,229,2.0,10.0,80,0.00,,---,0.00,VWS V14.01,2013-03-13 09:00:00,
2013-03-13 05:05:00,23.8,18.2,29.91,WSW,242,3.0,6.0,79,0.00,,---,0.00,VWS V14.01,2013-03-13 09:05:00,
2013-03-13 05:10:00,23.6,18.1,29.91,WSW,239,5.0,8.0,79,0.00,,---,0.00,VWS V14.01,2013-03-13 09:10:00,
2013-03-13 05:15:00,23.5,17.7,29.91,NNW,330,1.0,11.0,78,0.00,,---,0.00,VWS V14.01,2013-03-13 09:15:00,
2013-03-13 05:20:00,23.4,17.6,29.92,NNW,342,3.0,9.0,78,0.00,,---,0.00,VWS V14.01,2013-03-13 09:20:00,
2013-03-13 05:25:00,23.2,17.4,29.92,WSW,240,2.0,6.0,78,0.00,,---,0.00,VWS V14.01,2013-03-13 09:25:00,
2013-03-13 05:30:00,23.2,17.4,29.92,NW,311,2.0,9.0,78,0.00,,---,0.00,VWS V14.01,2013-03-13 09:30:00,
2013-03-13 05:35:00,23.0,17.5,29.92,SSW,212,3.0,7.0,79,0.00,,---,0.00,VWS V14.01,2013-03-13 09:35:00,
2013-03-13 05:40:00,23.0,17.5,29.92,West,281,4.0,7.0,79,0.00,,---,0.00,VWS V14.01,2013-03-13 09:40:00,
2013-03-13 05:45:00,22.9,17.4,29.92,WSW,238,2.0,12.0,79,0.00,,---,0.00,VWS V14.01,2013-03-13 09:45:00,
2013-03-13 05:50:00,22.9,17.4,29.93,SW,225,1.0,9.0,79,0.00,,---,0.00,VWS V14.01,2013-03-13 09:50:00,
2013-03-13 05:55:00,22.8,17.6,29.93,SSW,198,4.0,10.0,80,0.00,,---,0.00,VWS V14.01,2013-03-13 09:55:00,
2013-03-13 06:00:00,22.7,17.5,29.93,West,280,1.0,6.0,80,0.00,,---,0.00,VWS V14.01,2013-03-13 10:00:00,
2013-03-13 06:05:00,22.7,17.8,29.93,SW,221,0.0,5.0,81,0.00,,---,0.00,VWS V14.01,2013-03-13 10:05:00,
2013-03-13 06:10:00,22.5,17.6,29.93,West,266,3.0,6.0,81,0.00,,---,0.00,VWS V14.01,2013-03-13 10:10:00,
2013-03-13 06:15:00,22.5,17.6,29.94,West,273,2.0,6.0,81,0.00,,---,0.00,VWS V14.01,2013-03-13 10:15:00,
2013-03-13 06:20:00,22.5,17.9,29.94,SSW,211,2.0,7.0,82,0.00,,---,0.00,VWS V14.01,2013-03-13 10:20:00,
2013-03-13 06:25:00,22.5,17.9,29.94,WSW,245,0.0,8.0,82,0.00,,---,0.00,VWS V14.01,2013-03-13 10:25:00,
2013-03-13 06:30:00,22.4,17.8,29.94,NW,305,5.0,6.0,82,0.00,,---,0.00,VWS V14.01,2013-03-13 10:30:00,
2013-03-13 06:35:00,22.4,17.8,29.95,West,269,2.0,4.0,82,0.00,,---,0.00,VWS V14.01,2013-03-13 10:35:00,
2013-03-13 06:40:00,22.3,17.9,29.95,West,267,2.0,5.0,83,0.00,,---,0.00,VWS V14.01,2013-03-13 10:40:00,
2013-03-13 06:45:00,22.3,17.9,29.95,WNW,290,0.0,8.0,83,0.00,,---,0.00,VWS V14.01,2013-03-13 10:45:00,
2013-03-13 06:50:00,22.3,17.9,29.95,West,264,3.0,5.0,83,0.00,,---,0.00,VWS V14.01,2013-03-13 10:50:00,
2013-03-13 06:55:00,22.2,18.1,29.95,WNW,300,0.0,2.0,84,0.00,,---,0.00,VWS V14.01,2013-03-13 10:55:00,
2013-03-13 07:00:00,22.1,18.0,29.95,WNW,294,1.0,5.0,84,0.00,,---,0.00,VWS V14.01,2013-03-13 11:00:00,
2013-03-13 07:05:00,22.1,18.3,29.96,WSW,250,3.0,6.0,85,0.00,,---,0.00,VWS V14.01,2013-03-13 11:05:00,
2013-03-13 07:10:00,22.2,18.7,29.96,WNW,293,0.0,6.0,86,0.00,,---,0.00,VWS V14.01,2013-03-13 11:10:00,
2013-03-13 07:15:00,22.3,18.5,29.96,WSW,240,2.0,7.0,85,0.00,,---,0.00,VWS V14.01,2013-03-13 11:15:00,
2013-03-13 07:20:00,22.3,18.5,29.96,SW,217,5.0,10.0,85,0.00,,---,0.00,VWS V14.01,2013-03-13 11:20:00,
2013-03-13 07:25:00,22.3,18.5,29.96,NW,309,0.0,10.0,85,0.00,,---,0.00,VWS V14.01,2013-03-13 11:25:00,
2013-03-13 07:30:00,22.4,18.6,29.96,SW,214,0.0,4.0,85,0.00,,---,0.00,VWS V14.01,2013-03-13 11:30:00,
2013-03-13 07:35:00,22.4,18.9,29.96,NW,312,6.0,7.0,86,0.00,,---,0.00,VWS V14.01,2013-03-13 11:35:00,
2013-03-13 07:40:00,22.4,18.9,29.96,NW,311,2.0,6.0,86,0.00,,---,0.00,VWS V14.01,2013-03-13 11:40:00,
2013-03-13 07:45:00,22.4,18.9,29.97,WNW,290,4.0,7.0,86,0.00,,---,0.00,VWS V14.01,2013-03-13 11:45:00,
2013-03-13 07:50:00,22.5,19.0,29.97,SSW,203,4.0,5.0,86,0.00,,---,0.00,VWS V14.01,2013-03-13 11:50:00,
2013-03-13 07:55:00,22.5,19.2,29.97,SW,218,1.0,10.0,87,0.00,,---,0.00,VWS V14.01,2013-03-13 11:55:00,
2013-03-13 08:00:00,22.5,19.2,29.97,NW,316,3.0,6.0,87,0.00,,---,0.00,VWS V14.01,2013-03-13 12:00:00,
2013-03-13 08:05:00,22.6,19.3,29.97,West,266,0.0,4.0,87,0.00,,---,0.00,VWS V14.01,2013-03-13 12:05:00,
2013-03-13 08:10:00,22.6,19.6,29.97,WSW,253,4.0,4.0,88,0.00,,---,0.00,VWS V14.01,2013-03-13 12:10:00,
2013-03-13 08:15:00,22.7,19.7,29.97,West,271,2.0,6.0,88,0.00,,---,0.00,VWS V14.01,2013-03-13 12:15:00,
2013-03-13 08:20:00,22.8,19.8,29.97,ESE,110,2.0,4.0,88,0.00,,---,0.00,VWS V14.01,2013-03-13 12:20:00,
2013-03-13 08:25:00,22.9,19.9,29.97,SW,233,5.0,7.0,88,0.00,,---,0.00,VWS V14.01,2013-03-13 12:25:00,
2013-03-13 08:30:00,23.0,20.0,29.97,South,184,2.0,4.0,88,0.00,,---,0.00,VWS V14.01,2013-03-13 12:30:00,
2013-03-13 08:35:00,23.1,20.1,29.97,WSW,252,2.0,7.0,88,0.00,,---,0.00,VWS V14.01,2013-03-13 12:35:00,
2013-03-13 08:40:00,23.2,20.2,29.98,South,174,3.0,6.0,88,0.00,,---,0.00,VWS V14.01,2013-03-13 12:40:00,
2013-03-13 08:45:00,23.4,20.1,29.98,WSW,242,3.0,7.0,87,0.00,,---,0.00,VWS V14.01,2013-03-13 12:45:00,
2013-03-13 08:50:00,23.5,20.2,29.98,SW,234,3.0,6.0,87,0.00,,---,0.00,VWS V14.01,2013-03-13 12:50:00,
2013-03-13 08:55:00,23.6,20.3,29.98,SW,219,2.0,7.0,87,0.00,,---,0.00,VWS V14.01,2013-03-13 12:55:00,
2013-03-13 09:00:00,23.7,20.4,29.98,NW,322,7.0,8.0,87,0.00,,---,0.00,VWS V14.01,2013-03-13 13:00:00,
2013-03-13 09:05:00,23.8,20.2,29.98,NW,308,5.0,12.0,86,0.00,,---,0.00,VWS V14.01,2013-03-13 13:05:00,
2013-03-13 09:10:00,23.9,20.3,29.99,SSW,208,3.0,8.0,86,0.00,,---,0.00,VWS V14.01,2013-03-13 13:10:00,
2013-03-13 09:15:00,24.0,20.4,29.99,SW,229,3.0,9.0,86,0.00,,---,0.00,VWS V14.01,2013-03-13 13:15:00,
2013-03-13 09:20:00,24.1,20.2,29.99,WNW,285,2.0,9.0,85,0.00,,---,0.00,VWS V14.01,2013-03-13 13:20:00,
2013-03-13 09:25:00,24.2,20.6,29.99,West,259,6.0,7.0,86,0.00,,---,0.00,VWS V14.01,2013-03-13 13:25:00,
2013-03-13 09:30:00,24.2,20.4,29.99,WNW,284,4.0,9.0,85,0.00,,---,0.00,VWS V14.01,2013-03-13 13:30:00,
2013-03-13 09:35:00,24.3,20.5,29.99,WSW,256,3.0,13.0,85,0.00,,---,0.00,VWS V14.01,2013-03-13 13:35:00,
2013-03-13 09:40:00,24.4,20.5,30.00,NW,304,10.0,14.0,85,0.00,,---,0.00,VWS V14.01,2013-03-13 13:40:00,
2013-03-13 09:45:00,24.6,20.5,30.00,NW,315,4.0,8.0,84,0.00,,---,0.00,VWS V14.01,2013-03-13 13:45:00,
2013-03-13 09:50:00,24.7,20.3,30.00,WNW,295,7.0,10.0,83,0.00,,---,0.00,VWS V14.01,2013-03-13 13:50:00,
2013-03-13 09:55:00,24.8,20.1,30.00,NW,321,4.0,16.0,82,0.00,,---,0.00,VWS V14.01,2013-03-13 13:55:00,
2013-03-13 10:00:00,24.9,19.9,30.01,WNW,302,7.0,10.0,81,0.00,,---,0.00,VWS V14.01,2013-03-13 14:00:00,
2013-03-13 10:05:00,25.1,20.1,30.01,WSW,255,5.0,8.0,81,0.00,,---,0.00,VWS V14.01,2013-03-13 14:05:00,
2013-03-13 10:10:00,25.1,20.1,30.01,West,270,2.0,13.0,81,0.00,,---,0.00,VWS V14.01,2013-03-13 14:10:00,
2013-03-13 10:15:00,25.5,20.5,30.01,West,276,4.0,11.0,81,0.00,,---,0.00,VWS V14.01,2013-03-13 14:15:00,
2013-03-13 10:20:00,25.7,20.4,30.01,South,177,1.0,10.0,80,0.00,,---,0.00,VWS V14.01,2013-03-13 14:20:00,
2013-03-13 10:25:00,25.7,20.4,30.02,WSW,248,3.0,11.0,80,0.00,,---,0.00,VWS V14.01,2013-03-13 14:25:00,
2013-03-13 10:30:00,25.8,20.2,30.02,WSW,240,4.0,15.0,79,0.00,,---,0.00,VWS V14.01,2013-03-13 14:30:00,
2013-03-13 10:35:00,25.9,20.0,30.02,WSW,239,3.0,13.0,78,0.00,,---,0.00,VWS V14.01,2013-03-13 14:35:00,
2013-03-13 10:40:00,25.9,20.0,30.02,NW,323,4.0,14.0,78,0.00,,---,0.00,VWS V14.01,2013-03-13 14:40:00,
2013-03-13 10:45:00,25.9,20.0,30.03,WNW,300,6.0,15.0,78,0.00,,---,0.00,VWS V14.01,2013-03-13 14:45:00,
2013-03-13 10:50:00,25.9,20.0,30.03,WSW,250,5.0,11.0,78,0.00,,---,0.00,VWS V14.01,2013-03-13 14:50:00,
2013-03-13 10:55:00,26.1,19.6,30.03,WNW,290,5.0,8.0,76,0.00,,---,0.00,VWS V14.01,2013-03-13 14:55:00,
2013-03-13 11:00:00,26.3,19.5,30.03,NW,314,4.0,11.0,75,0.00,,---,0.00,VWS V14.01,2013-03-13 15:00:00,
2013-03-13 11:05:00,26.3,19.1,30.04,NNE,18,5.0,10.0,74,0.00,,---,0.00,VWS V14.01,2013-03-13 15:05:00,
2013-03-13 11:10:00,26.3,19.1,30.03,NW,304,3.0,11.0,74,0.00,,---,0.00,VWS V14.01,2013-03-13 15:10:00,
2013-03-13 11:15:00,26.5,20.0,30.04,NW,321,6.0,6.0,76,0.00,,---,0.00,VWS V14.01,2013-03-13 15:15:00,
2013-03-13 11:20:00,26.5,20.3,30.04,SW,229,3.0,6.0,77,0.00,,---,0.00,VWS V14.01,2013-03-13 15:20:00,
2013-03-13 11:25:00,26.5,20.0,30.04,SW,214,0.0,5.0,76,0.00,,---,0.00,VWS V14.01,2013-03-13 15:25:00,
2013-03-13 11:30:00,26.6,19.4,30.04,WNW,300,4.0,7.0,74,0.00,,---,0.00,VWS V14.01,2013-03-13 15:30:00,
2013-03-13 11:35:00,26.7,19.2,30.04,WNW,302,6.0,8.0,73,0.00,,---,0.00,VWS V14.01,2013-03-13 15:35:00,
2013-03-13 11:40:00,26.9,19.7,30.05,NNW,335,7.0,14.0,74,0.00,,---,0.00,VWS V14.01,2013-03-13 15:40:00,
2013-03-13 11:45:00,27.0,19.5,30.05,NW,308,6.0,11.0,73,0.00,,---,0.00,VWS V14.01,2013-03-13 15:45:00,
2013-03-13 11:50:00,27.6,19.1,30.05,WSW,246,6.0,11.0,70,0.00,,---,0.00,VWS V14.01,2013-03-13 15:50:00,
2013-03-13 11:55:00,27.8,19.0,30.05,West,267,10.0,14.0,69,0.00,,---,0.00,VWS V14.01,2013-03-13 15:55:00,
2013-03-13 12:00:00,27.7,19.2,30.05,NNW,337,1.0,13.0,70,0.00,,---,0.00,VWS V14.01,2013-03-13 16:00:00,
2013-03-13 12:05:00,27.8,19.3,30.06,NW,325,5.0,11.0,70,0.00,,---,0.00,VWS V14.01,2013-03-13 16:05:00,
2013-03-13 12:10:00,27.7,18.2,30.06,NW,323,2.0,15.0,67,0.00,,---,0.00,VWS V14.01,2013-03-13 16:10:00,
2013-03-13 12:15:00,27.7,18.2,30.06,WNW,301,7.0,12.0,67,0.00,,---,0.00,VWS V14.01,2013-03-13 16:15:00,
2013-03-13 12:20:00,27.7,18.5,30.06,NW,326,5.0,10.0,68,0.00,,---,0.00,VWS V14.01,2013-03-13 16:20:00,
2013-03-13 12:25:00,27.5,20.0,30.06,SE,145,3.0,8.0,73,0.00,,---,0.00,VWS V14.01,2013-03-13 16:25:00,
2013-03-13 12:30:00,27.2,20.3,30.06,West,281,6.0,11.0,75,0.00,,---,0.00,VWS V14.01,2013-03-13 16:30:00,
2013-03-13 12:35:00,27.2,20.3,30.06,SSW,199,0.0,12.0,75,0.00,,---,0.00,VWS V14.01,2013-03-13 16:35:00,
2013-03-13 12:40:00,27.3,21.4,30.07,West,275,1.0,9.0,78,0.00,,---,0.00,VWS V14.01,2013-03-13 16:40:00,
2013-03-13 12:45:00,27.1,21.2,30.07,NW,326,6.0,9.0,78,0.00,,---,0.00,VWS V14.01,2013-03-13 16:45:00,
2013-03-13 12:50:00,27.4,21.1,30.07,NNW,332,1.0,11.0,77,0.00,,---,0.00,VWS V14.01,2013-03-13 16:50:00,
2013-03-13 12:55:00,27.8,20.3,30.07,WNW,290,4.0,8.0,73,0.00,,---,0.00,VWS V14.01,2013-03-13 16:55:00,
2013-03-13 13:00:00,27.9,19.4,30.07,North,351,3.0,8.0,70,0.00,,---,0.00,VWS V14.01,2013-03-13 17:00:00,
2013-03-13 13:05:00,27.9,19.4,30.08,NNW,331,5.0,13.0,70,0.00,,---,0.00,VWS V14.01,2013-03-13 17:05:00,
2013-03-13 13:09:00,27.7,20.2,30.07,West,280,5.0,11.0,73,0.00,,---,0.00,VWS V14.01,2013-03-13 17:09:00,
2013-03-13 13:10:00,27.6,20.7,30.08,NW,306,7.0,9.0,75,0.00,,---,0.00,VWS V14.01,2013-03-13 17:10:00,
2013-03-13 13:14:00,27.7,20.5,30.07,NW,308,7.0,8.0,74,0.00,,---,0.00,VWS V14.01,2013-03-13 17:14:00,
2013-03-13 13:15:00,27.9,21.0,30.08,WNW,290,3.0,13.0,75,0.00,,---,0.00,VWS V14.01,2013-03-13 17:15:00,
2013-03-13 13:19:00,27.7,20.8,30.08,NW,316,10.0,13.0,75,0.00,,---,0.00,VWS V14.01,2013-03-13 17:19:00,
2013-03-13 13:20:00,28.3,21.1,30.08,NW,306,8.0,11.0,74,0.00,,---,0.00,VWS V14.01,2013-03-13 17:20:00,
2013-03-13 13:24:00,28.1,20.9,30.08,South,187,5.0,11.0,74,0.00,,---,0.00,VWS V14.01,2013-03-13 17:24:00,
2013-03-13 13:25:00,28.9,21.0,30.08,NW,321,4.0,14.0,72,0.00,,---,0.00,VWS V14.01,2013-03-13 17:25:00,
2013-03-13 13:29:00,28.7,21.1,30.08,NW,318,7.0,14.0,73,0.00,,---,0.00,VWS V14.01,2013-03-13 17:29:00,
2013-03-13 13:30:00,29.3,20.8,30.08,ENE,74,2.0,13.0,70,0.00,,---,0.00,VWS V14.01,2013-03-13 17:30:00,
2013-03-13 13:34:00,29.2,21.0,30.08,NW,324,2.0,13.0,71,0.00,,---,0.00,VWS V14.01,2013-03-13 17:34:00,
2013-03-13 13:35:00,29.2,20.3,30.08,WNW,293,7.0,11.0,69,0.00,,---,0.00,VWS V14.01,2013-03-13 17:35:00,
2013-03-13 13:39:00,29.0,19.8,30.08,North,11,3.0,11.0,68,0.00,,---,0.00,VWS V14.01,2013-03-13 17:39:00,
2013-03-13 13:40:00,29.2,20.0,30.08,NW,305,6.0,13.0,68,0.00,,---,0.00,VWS V14.01,2013-03-13 17:40:00,
2013-03-13 13:44:00,29.2,20.0,30.08,South,177,6.0,13.0,68,0.00,,---,0.00,VWS V14.01,2013-03-13 17:44:00,
2013-03-13 13:45:00,29.5,20.3,30.08,NW,323,2.0,9.0,68,0.00,,---,0.00,VWS V14.01,2013-03-13 17:45:00,
2013-03-13 13:49:00,29.4,20.2,30.09,WNW,298,5.0,9.0,68,0.00,,---,0.00,VWS V14.01,2013-03-13 17:49:00,
2013-03-13 13:50:00,29.4,20.2,30.08,NNW,339,7.0,11.0,68,0.00,,---,0.00,VWS V14.01,2013-03-13 17:50:00,
2013-03-13 13:54:00,29.5,19.9,30.09,WNW,284,7.0,11.0,67,0.00,,---,0.00,VWS V14.01,2013-03-13 17:54:00,
2013-03-13 13:55:00,28.9,20.4,30.09,SW,233,1.0,14.0,70,0.00,,---,0.00,VWS V14.01,2013-03-13 17:55:00,
2013-03-13 13:59:00,29.2,20.3,30.09,NNW,342,6.0,14.0,69,0.00,,---,0.00,VWS V14.01,2013-03-13 17:59:00,
2013-03-13 14:00:00,29.3,20.4,30.09,NE,49,4.0,17.0,69,0.00,,---,0.00,VWS V14.01,2013-03-13 18:00:00,
2013-03-13 14:04:00,29.0,20.1,30.09,NNW,339,3.0,17.0,69,0.00,,---,0.00,VWS V14.01,2013-03-13 18:04:00,
2013-03-13 14:05:00,29.8,19.8,30.09,WNW,297,4.0,10.0,66,0.00,,---,0.00,VWS V14.01,2013-03-13 18:05:00,
2013-03-13 14:09:00,29.6,20.0,30.09,WNW,302,2.0,10.0,67,0.00,,---,0.00,VWS V14.01,2013-03-13 18:09:00,
2013-03-13 14:10:00,29.5,19.9,30.09,WNW,294,2.0,13.0,67,0.00,,---,0.00,VWS V14.01,2013-03-13 18:10:00,
2013-03-13 14:14:00,29.6,19.3,30.09,WNW,295,6.0,12.0,65,0.00,,---,0.00,VWS V14.01,2013-03-13 18:14:00,
2013-03-13 14:15:00,29.4,20.2,30.09,NW,304,5.0,9.0,68,0.00,,---,0.00,VWS V14.01,2013-03-13 18:15:00,
2013-03-13 14:19:00,29.6,20.4,30.09,WNW,297,6.0,8.0,68,0.00,,---,0.00,VWS V14.01,2013-03-13 18:19:00,
2013-03-13 14:20:00,29.7,20.5,30.09,SW,217,1.0,9.0,68,0.00,,---,0.00,VWS V14.01,2013-03-13 18:20:00,
2013-03-13 14:24:00,29.6,21.0,30.09,West,274,4.0,8.0,70,0.00,,---,0.00,VWS V14.01,2013-03-13 18:24:00,
2013-03-13 14:25:00,30.1,20.5,30.09,WNW,283,4.0,13.0,67,0.00,,---,0.00,VWS V14.01,2013-03-13 18:25:00,
2013-03-13 14:29:00,29.9,20.3,30.09,SE,141,2.0,13.0,67,0.00,,---,0.00,VWS V14.01,2013-03-13 18:29:00,
2013-03-13 14:30:00,30.1,19.4,30.09,NNW,341,2.0,9.0,64,0.00,,---,0.00,VWS V14.01,2013-03-13 18:30:00,
2013-03-13 14:34:00,30.1,19.4,30.09,WNW,292,1.0,9.0,64,0.00,,---,0.00,VWS V14.01,2013-03-13 18:34:00,
2013-03-13 14:35:00,30.2,19.9,30.10,NW,316,4.0,16.0,65,0.00,,---,0.00,VWS V14.01,2013-03-13 18:35:00,
2013-03-13 14:39:00,30.3,20.0,30.09,SW,231,4.0,9.0,65,0.00,,---,0.00,VWS V14.01,2013-03-13 18:39:00,
2013-03-13 14:40:00,30.3,19.6,30.10,SSW,208,4.0,8.0,64,0.00,,---,0.00,VWS V14.01,2013-03-13 18:40:00,
2013-03-13 14:44:00,30.2,19.1,30.10,NNW,335,7.0,8.0,63,0.00,,---,0.00,VWS V14.01,2013-03-13 18:44:00,
2013-03-13 14:45:00,30.3,18.5,30.09,NW,310,10.0,13.0,61,0.00,,---,0.00,VWS V14.01,2013-03-13 18:45:00,
2013-03-13 14:49:00,30.3,18.5,30.10,NW,314,3.0,11.0,61,0.00,,---,0.00,VWS V14.01,2013-03-13 18:49:00,
2013-03-13 14:50:00,30.4,18.2,30.10,WNW,287,4.0,16.0,60,0.00,,---,0.00,VWS V14.01,2013-03-13 18:50:00,
2013-03-13 14:54:00,30.4,18.2,30.10,WNW,297,4.0,16.0,60,0.00,,---,0.00,VWS V14.01,2013-03-13 18:54:00,
2013-03-13 14:55:00,30.8,19.3,30.10,NNW,333,7.0,15.0,62,0.00,,---,0.00,VWS V14.01,2013-03-13 18:55:00,
2013-03-13 14:59:00,30.6,19.1,30.10,NW,315,2.0,6.0,62,0.00,,---,0.00,VWS V14.01,2013-03-13 18:59:00,
2013-03-13 15:00:00,31.4,18.7,30.10,West,267,2.0,11.0,59,0.00,,---,0.00,VWS V14.01,2013-03-13 19:00:00,
2013-03-13 15:04:00,31.2,19.7,30.10,West,275,3.0,11.0,62,0.00,,---,0.00,VWS V14.01,2013-03-13 19:04:00,
2013-03-13 15:05:00,31.4,18.7,30.10,SSW,200,5.0,11.0,59,0.00,,---,0.00,VWS V14.01,2013-03-13 19:05:00,
2013-03-13 15:09:00,31.4,17.9,30.10,WSW,240,4.0,11.0,57,0.00,,---,0.00,VWS V14.01,2013-03-13 19:09:00,
2013-03-13 15:10:00,31.2,18.6,30.10,SW,228,8.0,13.0,59,0.00,,---,0.00,VWS V14.01,2013-03-13 19:10:00,
2013-03-13 15:14:00,31.4,18.7,30.10,WNW,285,2.0,12.0,59,0.00,,---,0.00,VWS V14.01,2013-03-13 19:14:00,
2013-03-13 15:15:00,31.1,18.5,30.09,NW,325,11.0,12.0,59,0.00,,---,0.00,VWS V14.01,2013-03-13 19:15:00,
2013-03-13 15:19:00,31.1,18.1,30.10,North,360,3.0,12.0,58,0.00,,---,0.00,VWS V14.01,2013-03-13 19:19:00,
2013-03-13 15:20:00,30.5,16.7,30.10,NW,305,2.0,16.0,56,0.00,,---,0.00,VWS V14.01,2013-03-13 19:20:00,
2013-03-13 15:24:00,30.9,17.5,30.10,NW,326,16.0,16.0,57,0.00,,---,0.00,VWS V14.01,2013-03-13 19:24:00,
2013-03-13 15:25:00,30.3,16.5,30.10,NW,310,9.0,15.0,56,0.00,,---,0.00,VWS V14.01,2013-03-13 19:25:00,
2013-03-13 15:29:00,30.3,16.9,30.10,NNW,334,7.0,13.0,57,0.00,,---,0.00,VWS V14.01,2013-03-13 19:29:00,
2013-03-13 15:30:00,30.4,17.4,30.11,WSW,241,8.0,10.0,58,0.00,,---,0.00,VWS V14.01,2013-03-13 19:30:00,
2013-03-13 15:34:00,30.3,16.9,30.10,NNW,331,5.0,10.0,57,0.00,,---,0.00,VWS V14.01,2013-03-13 19:34:00,
2013-03-13 15:35:00,30.7,18.1,30.11,WSW,256,5.0,13.0,59,0.00,,---,0.00,VWS V14.01,2013-03-13 19:35:00,
2013-03-13 15:39:00,30.5,17.5,30.11,NW,315,4.0,13.0,58,0.00,,---,0.00,VWS V14.01,2013-03-13 19:39:00,
2013-03-13 15:40:00,31.1,18.1,30.11,NNW,340,7.0,10.0,58,0.00,,---,0.00,VWS V14.01,2013-03-13 19:40:00,
2013-03-13 15:44:00,30.9,18.3,30.11,WNW,297,3.0,9.0,59,0.00,,---,0.00,VWS V14.01,2013-03-13 19:44:00,
2013-03-13 15:45:00,30.6,16.8,30.11,NNW,328,4.0,13.0,56,0.00,,---,0.00,VWS V14.01,2013-03-13 19:45:00,
2013-03-13 15:49:00,30.8,17.0,30.11,NW,318,8.0,13.0,56,0.00,,---,0.00,VWS V14.01,2013-03-13 19:49:00,
2013-03-13 15:50:00,30.6,17.2,30.11,SSE,157,4.0,13.0,57,0.00,,---,0.00,VWS V14.01,2013-03-13 19:50:00,
2013-03-13 15:54:00,30.6,16.8,30.11,SSE,156,5.0,11.0,56,0.00,,---,0.00,VWS V14.01,2013-03-13 19:54:00,
2013-03-13 15:55:00,30.8,17.4,30.11,SSE,153,0.0,14.0,57,0.00,,---,0.00,VWS V14.01,2013-03-13 19:55:00,
2013-03-13 15:59:00,30.6,16.8,30.11,West,275,9.0,14.0,56,0.00,,---,0.00,VWS V14.01,2013-03-13 19:59:00,
2013-03-13 16:00:00,31.4,17.9,30.11,West,266,2.0,7.0,57,0.00,,---,0.00,VWS V14.01,2013-03-13 20:00:00,
2013-03-13 16:04:00,31.2,17.8,30.12,NW,324,1.0,7.0,57,0.00,,---,0.00,VWS V14.01,2013-03-13 20:04:00,
2013-03-13 16:05:00,31.6,17.3,30.12,NW,315,6.0,14.0,55,0.00,,---,0.00,VWS V14.01,2013-03-13 20:05:00,
2013-03-13 16:09:00,31.5,17.6,30.11,NW,315,4.0,11.0,56,0.00,,---,0.00,VWS V14.01,2013-03-13 20:09:00,
2013-03-13 16:10:00,31.7,17.0,30.12,West,270,10.0,11.0,54,0.00,,---,0.00,VWS V14.01,2013-03-13 20:10:00,
2013-03-13 16:14:00,31.6,16.9,30.12,NW,322,7.0,9.0,54,0.00,,---,0.00,VWS V14.01,2013-03-13 20:14:00,
2013-03-13 16:15:00,31.3,17.0,30.12,NW,325,7.0,14.0,55,0.00,,---,0.00,VWS V14.01,2013-03-13 20:15:00,
2013-03-13 16:19:00,31.4,16.7,30.12,WNW,296,12.0,14.0,54,0.00,,---,0.00,VWS V14.01,2013-03-13 20:19:00,
2013-03-13 16:20:00,31.7,17.4,30.12,SW,225,2.0,14.0,55,0.00,,---,0.00,VWS V14.01,2013-03-13 20:20:00,
2013-03-13 16:24:00,31.7,17.8,30.12,SW,236,7.0,11.0,56,0.00,,---,0.00,VWS V14.01,2013-03-13 20:24:00,
2013-03-13 16:25:00,31.7,17.0,30.12,North,356,2.0,14.0,54,0.00,,---,0.00,VWS V14.01,2013-03-13 20:25:00,
2013-03-13 16:29:00,31.8,17.1,30.12,SSW,213,4.0,14.0,54,0.00,,---,0.00,VWS V14.01,2013-03-13 20:29:00,
2013-03-13 16:30:00,31.6,16.9,30.12,WSW,243,6.0,12.0,54,0.00,,---,0.00,VWS V14.01,2013-03-13 20:30:00,
2013-03-13 16:34:00,31.6,17.3,30.12,SW,236,5.0,12.0,55,0.00,,---,0.00,VWS V14.01,2013-03-13 20:34:00,
2013-03-13 16:35:00,31.6,17.3,30.12,SW,228,8.0,10.0,55,0.00,,---,0.00,VWS V14.01,2013-03-13 20:35:00,
2013-03-13 16:39:00,31.6,16.9,30.12,NNW,347,4.0,10.0,54,0.00,,---,0.00,VWS V14.01,2013-03-13 20:39:00,
2013-03-13 16:40:00,32.0,17.2,30.13,NW,316,8.0,13.0,54,0.00,,---,0.00,VWS V14.01,2013-03-13 20:40:00,
2013-03-13 16:44:00,31.9,17.2,30.13,West,266,3.0,8.0,54,0.00,,---,0.00,VWS V14.01,2013-03-13 20:44:00,
2013-03-13 16:45:00,32.4,17.6,30.13,WNW,295,5.0,8.0,54,0.00,,---,0.00,VWS V14.01,2013-03-13 20:45:00,
2013-03-13 16:49:00,32.2,17.9,30.13,SW,214,2.0,8.0,55,0.00,,---,0.00,VWS V14.01,2013-03-13 20:49:00,
2013-03-13 16:50:00,31.9,17.2,30.14,NW,307,2.0,11.0,54,0.00,,---,0.00,VWS V14.01,2013-03-13 20:50:00,
2013-03-13 16:54:00,32.2,17.9,30.14,West,273,8.0,8.0,55,0.00,,---,0.00,VWS V14.01,2013-03-13 20:54:00,
2013-03-13 16:55:00,31.4,16.7,30.14,WNW,300,6.0,9.0,54,0.00,,---,0.00,VWS V14.01,2013-03-13 20:55:00,
2013-03-13 16:59:00,31.5,16.4,30.14,WSW,238,4.0,9.0,53,0.00,,---,0.00,VWS V14.01,2013-03-13 20:59:00,
2013-03-13 17:00:00,31.7,18.2,30.14,WNW,286,8.0,12.0,57,0.00,,---,0.00,VWS V14.01,2013-03-13 21:00:00,
2013-03-13 17:04:00,31.5,17.6,30.14,NNW,342,5.0,12.0,56,0.00,,---,0.00,VWS V14.01,2013-03-13 21:04:00,
2013-03-13 17:05:00,31.9,18.0,30.14,SW,219,3.0,10.0,56,0.00,,---,0.00,VWS V14.01,2013-03-13 21:05:00,
2013-03-13 17:09:00,31.8,17.9,30.14,South,190,5.0,10.0,56,0.00,,---,0.00,VWS V14.01,2013-03-13 21:09:00,
2013-03-13 17:10:00,31.5,17.2,30.14,NW,315,7.0,17.0,55,0.00,,---,0.00,VWS V14.01,2013-03-13 21:10:00,
2013-03-13 17:14:00,31.7,17.4,30.14,SW,232,7.0,17.0,55,0.00,,---,0.00,VWS V14.01,2013-03-13 21:14:00,
2013-03-13 17:15:00,31.2,16.9,30.15,WNW,303,9.0,13.0,55,0.00,,---,0.00,VWS V14.01,2013-03-13 21:15:00,
2013-03-13 17:19:00,31.3,17.0,30.14,NW,309,12.0,13.0,55,0.00,,---,0.00,VWS V14.01,2013-03-13 21:19:00,
2013-03-13 17:20:00,31.4,17.5,30.15,WSW,243,4.0,10.0,56,0.00,,---,0.00,VWS V14.01,2013-03-13 21:20:00,
2013-03-13 17:24:00,31.2,17.3,30.15,SSW,209,7.0,10.0,56,0.00,,---,0.00,VWS V14.01,2013-03-13 21:24:00,
2013-03-13 17:25:00,31.7,17.4,30.15,West,259,2.0,10.0,55,0.00,,---,0.00,VWS V14.01,2013-03-13 21:25:00,
2013-03-13 17:29:00,31.6,17.7,30.15,WSW,247,4.0,10.0,56,0.00,,---,0.00,VWS V14.01,2013-03-13 21:29:00,
2013-03-13 17:30:00,32.0,17.7,30.15,WSW,239,3.0,9.0,55,0.00,,---,0.00,VWS V14.01,2013-03-13 21:30:00,
2013-03-13 17:34:00,31.8,18.3,30.15,SSW,200,2.0,6.0,57,0.00,,---,0.00,VWS V14.01,2013-03-13 21:34:00,
2013-03-13 17:35:00,31.6,16.5,30.16,NNE,22,2.0,10.0,53,0.00,,---,0.00,VWS V14.01,2013-03-13 21:35:00,
2013-03-13 17:39:00,32.0,17.2,30.16,North,6,6.0,10.0,54,0.00,,---,0.00,VWS V14.01,2013-03-13 21:39:00,
2013-03-13 17:40:00,31.6,16.9,30.16,SW,227,6.0,12.0,54,0.00,,---,0.00,VWS V14.01,2013-03-13 21:40:00,
2013-03-13 17:44:00,31.6,17.7,30.16,WNW,296,6.0,9.0,56,0.00,,---,0.00,VWS V14.01,2013-03-13 21:44:00,
2013-03-13 17:45:00,31.4,17.1,30.16,WNW,290,3.0,14.0,55,0.00,,---,0.00,VWS V14.01,2013-03-13 21:45:00,
2013-03-13 17:49:00,31.4,17.1,30.16,SSW,212,5.0,14.0,55,0.00,,---,0.00,VWS V14.01,2013-03-13 21:49:00,
2013-03-13 17:50:00,31.3,16.6,30.16,West,274,4.0,10.0,54,0.00,,---,0.00,VWS V14.01,2013-03-13 21:50:00,
2013-03-13 17:54:00,31.4,16.7,30.16,WNW,283,3.0,10.0,54,0.00,,---,0.00,VWS V14.01,2013-03-13 21:54:00,
2013-03-13 17:55:00,31.3,17.0,30.16,SW,225,4.0,16.0,55,0.00,,---,0.00,VWS V14.01,2013-03-13 21:55:00,
2013-03-13 17:59:00,31.3,17.0,30.16,NW,326,15.0,16.0,55,0.00,,---,0.00,VWS V14.01,2013-03-13 21:59:00,
2013-03-13 18:00:00,31.4,17.1,30.16,NE,41,4.0,11.0,55,0.00,,---,0.00,VWS V14.01,2013-03-13 22:00:00,
2013-03-13 18:04:00,31.3,17.0,30.16,West,280,6.0,11.0,55,0.00,,---,0.00,VWS V14.01,2013-03-13 22:04:00,
2013-03-13 18:05:00,31.4,17.1,30.16,WNW,285,9.0,11.0,55,0.00,,---,0.00,VWS V14.01,2013-03-13 22:05:00,
2013-03-13 18:09:00,31.3,16.6,30.16,WSW,257,7.0,9.0,54,0.00,,---,0.00,VWS V14.01,2013-03-13 22:09:00,
2013-03-13 18:10:00,31.4,16.7,30.17,NW,321,8.0,9.0,54,0.00,,---,0.00,VWS V14.01,2013-03-13 22:10:00,
2013-03-13 18:14:00,31.5,16.8,30.16,WNW,300,3.0,9.0,54,0.00,,---,0.00,VWS V14.01,2013-03-13 22:14:00,
2013-03-13 18:15:00,31.2,16.9,30.17,West,281,1.0,12.0,55,0.00,,---,0.00,VWS V14.01,2013-03-13 22:15:00,
2013-03-13 18:19:00,31.2,16.5,30.16,NW,313,6.0,12.0,54,0.00,,---,0.00,VWS V14.01,2013-03-13 22:19:00,
2013-03-13 18:20:00,31.2,16.5,30.17,NW,305,5.0,12.0,54,0.00,,---,0.00,VWS V14.01,2013-03-13 22:20:00,
2013-03-13 18:24:00,31.3,16.6,30.17,NW,308,5.0,11.0,54,0.00,,---,0.00,VWS V14.01,2013-03-13 22:24:00,
2013-03-13 18:25:00,30.9,16.6,30.17,WSW,248,6.0,9.0,55,0.00,,---,0.00,VWS V14.01,2013-03-13 22:25:00,
2013-03-13 18:29:00,31.0,16.7,30.17,NW,304,5.0,9.0,55,0.00,,---,0.00,VWS V14.01,2013-03-13 22:29:00,
2013-03-13 18:30:00,30.9,16.6,30.17,SW,228,6.0,10.0,55,0.00,,---,0.00,VWS V14.01,2013-03-13 22:30:00,
2013-03-13 18:34:00,30.9,16.6,30.17,SW,219,3.0,10.0,55,0.00,,---,0.00,VWS V14.01,2013-03-13 22:34:00,
2013-03-13 18:35:00,30.7,16.5,30.17,West,271,4.0,20.0,55,0.00,,---,0.00,VWS V14.01,2013-03-13 22:35:00,
2013-03-13 18:39:00,30.8,16.1,30.17,SSW,212,5.0,20.0,54,0.00,,---,0.00,VWS V14.01,2013-03-13 22:39:00,
2013-03-13 18:40:00,30.8,16.1,30.17,WNW,285,7.0,8.0,54,0.00,,---,0.00,VWS V14.01,2013-03-13 22:40:00,
2013-03-13 18:44:00,30.8,16.5,30.17,SW,219,3.0,8.0,55,0.00,,---,0.00,VWS V14.01,2013-03-13 22:44:00,
2013-03-13 18:45:00,30.5,15.9,30.18,NW,317,3.0,14.0,54,0.00,,---,0.00,VWS V14.01,2013-03-13 22:45:00,
2013-03-13 18:49:00,30.6,15.9,30.18,WNW,292,5.0,14.0,54,0.00,,---,0.00,VWS V14.01,2013-03-13 22:49:00,
2013-03-13 18:50:00,30.2,15.6,30.18,SW,219,3.0,14.0,54,0.00,,---,0.00,VWS V14.01,2013-03-13 22:50:00,
2013-03-13 18:54:00,30.4,15.3,30.18,NNW,333,10.0,12.0,53,0.00,,---,0.00,VWS V14.01,2013-03-13 22:54:00,
2013-03-13 18:55:00,29.9,16.1,30.18,WSW,240,1.0,9.0,56,0.00,,---,0.00,VWS V14.01,2013-03-13 22:55:00,
2013-03-13 18:59:00,30.0,16.2,30.18,WNW,295,8.0,8.0,56,0.00,,---,0.00,VWS V14.01,2013-03-13 22:59:00,
2013-03-13 19:00:00,29.6,16.2,30.19,SW,229,3.0,9.0,57,0.00,,---,0.00,VWS V14.01,2013-03-13 23:00:00,
2013-03-13 19:04:00,29.7,16.4,30.18,NW,305,9.0,9.0,57,0.00,,---,0.00,VWS V14.01,2013-03-13 23:04:00,
2013-03-13 19:05:00,29.3,16.0,30.19,NNW,329,2.0,9.0,57,0.00,,---,0.00,VWS V14.01,2013-03-13 23:05:00,
2013-03-13 19:09:00,29.5,16.6,30.19,SW,231,6.0,7.0,58,0.00,,---,0.00,VWS V14.01,2013-03-13 23:09:00,
2013-03-13 19:10:00,31.4,16.7,30.17,NW,321,8.0,9.0,54,0.00,,---,0.00,VWS V14.01,2013-03-13 23:10:00,
2013-03-13 19:15:00,29.0,15.7,30.19,WSW,252,5.0,10.0,57,0.00,,---,0.00,VWS V14.01,2013-03-13 23:15:00,
2013-03-13 19:17:00,29.3,16.0,30.19,WNW,284,5.0,7.0,57,0.00,,---,0.00,VWS V14.01,2013-03-13 23:17:00,
2013-03-13 19:20:00,28.8,16.3,30.19,SW,224,2.0,8.0,59,0.00,,---,0.00,VWS V14.01,2013-03-13 23:20:00,
2013-03-13 19:22:00,28.9,15.6,30.19,NW,315,0.0,6.0,57,0.00,,---,0.00,VWS V14.01,2013-03-13 23:22:00,
2013-03-13 19:25:00,28.7,15.4,30.19,WNW,290,2.0,11.0,57,0.00,,---,0.00,VWS V14.01,2013-03-13 23:25:00,
2013-03-13 19:27:00,28.8,15.9,30.19,NW,311,4.0,10.0,58,0.00,,---,0.00,VWS V14.01,2013-03-13 23:27:00,
2013-03-13 19:30:00,28.6,15.3,30.19,WNW,297,4.0,15.0,57,0.00,,---,0.00,VWS V14.01,2013-03-13 23:30:00,
2013-03-13 19:32:00,28.6,15.3,30.19,West,259,2.0,8.0,57,0.00,,---,0.00,VWS V14.01,2013-03-13 23:32:00,
2013-03-13 19:35:00,28.4,14.7,30.20,NW,304,6.0,11.0,56,0.00,,---,0.00,VWS V14.01,2013-03-13 23:35:00,
2013-03-13 19:37:00,28.5,15.2,30.20,WNW,283,5.0,9.0,57,0.00,,---,0.00,VWS V14.01,2013-03-13 23:37:00,
2013-03-13 19:40:00,28.3,14.6,30.20,NW,307,1.0,8.0,56,0.00,,---,0.00,VWS V14.01,2013-03-13 23:40:00,
2013-03-13 19:42:00,28.4,14.7,30.20,WSW,250,4.0,6.0,56,0.00,,---,0.00,VWS V14.01,2013-03-13 23:42:00,
2013-03-13 19:45:00,28.2,14.9,30.20,NNE,32,3.0,8.0,57,0.00,,---,0.00,VWS V14.01,2013-03-13 23:45:00,
2013-03-13 19:47:00,28.3,15.0,30.20,NW,323,2.0,8.0,57,0.00,,---,0.00,VWS V14.01,2013-03-13 23:47:00,
2013-03-13 19:50:00,28.1,14.4,30.20,NE,34,2.0,8.0,56,0.00,,---,0.00,VWS V14.01,2013-03-13 23:50:00,
2013-03-13 19:52:00,28.2,14.5,30.20,SSW,208,4.0,8.0,56,0.00,,---,0.00,VWS V14.01,2013-03-13 23:52:00,
2013-03-13 19:55:00,27.9,14.6,30.20,SW,229,2.0,6.0,57,0.00,,---,0.00,VWS V14.01,2013-03-13 23:55:00,
2013-03-13 19:57:00,28.0,14.8,30.20,WNW,294,4.0,6.0,57,0.00,,---,0.00,VWS V14.01,2013-03-13 23:57:00,
2013-03-13 20:00:00,27.8,14.6,30.21,SW,228,4.0,11.0,57,0.00,,---,0.00,VWS V14.01,2013-03-14 00:00:00,
2013-03-13 20:02:00,27.9,14.6,30.21,WNW,300,1.0,3.0,57,0.00,,---,0.00,VWS V14.01,2013-03-14 00:02:00,
2013-03-13 20:05:00,27.7,14.5,30.21,WNW,290,6.0,10.0,57,0.00,,---,0.00,VWS V14.01,2013-03-14 00:05:00,
2013-03-13 20:07:00,27.8,14.6,30.21,SSW,198,1.0,4.0,57,0.00,,---,0.00,VWS V14.01,2013-03-14 00:07:00,
2013-03-13 20:10:00,27.7,14.5,30.21,SW,222,2.0,7.0,57,0.00,,---,0.00,VWS V14.01,2013-03-14 00:10:00,
2013-03-13 20:13:00,27.8,14.2,30.21,NW,321,5.0,7.0,56,0.00,,---,0.00,VWS V14.01,2013-03-14 00:13:00,
2013-03-13 20:15:00,27.7,14.1,30.21,NW,317,0.0,10.0,56,0.00,,---,0.00,VWS V14.01,2013-03-14 00:15:00,
2013-03-13 20:18:00,27.7,14.1,30.21,WSW,238,1.0,5.0,56,0.00,,---,0.00,VWS V14.01,2013-03-14 00:18:00,
2013-03-13 20:20:00,27.6,14.4,30.22,North,6,4.0,7.0,57,0.00,,---,0.00,VWS V14.01,2013-03-14 00:20:00,
2013-03-13 20:23:00,27.7,14.5,30.21,SW,225,1.0,2.0,57,0.00,,---,0.00,VWS V14.01,2013-03-14 00:23:00,
2013-03-13 20:25:00,27.5,13.9,30.22,West,263,0.0,10.0,56,0.00,,---,0.00,VWS V14.01,2013-03-14 00:25:00,
2013-03-13 20:28:00,27.6,14.4,30.21,West,270,3.0,4.0,57,0.00,,---,0.00,VWS V14.01,2013-03-14 00:28:00,
2013-03-13 20:30:00,27.5,14.3,30.21,NW,318,5.0,6.0,57,0.00,,---,0.00,VWS V14.01,2013-03-14 00:30:00,
2013-03-13 20:32:00,27.6,14.4,30.22,WSW,240,2.0,3.0,57,0.00,,---,0.00,VWS V14.01,2013-03-14 00:32:00,
2013-03-13 20:35:00,27.4,14.2,30.22,WSW,256,2.0,8.0,57,0.00,,---,0.00,VWS V14.01,2013-03-14 00:35:00,
2013-03-13 20:38:00,27.5,14.3,30.22,WSW,243,3.0,7.0,57,0.00,,---,0.00,VWS V14.01,2013-03-14 00:38:00,
2013-03-13 20:40:00,27.3,14.1,30.22,NW,306,5.0,8.0,57,0.00,,---,0.00,VWS V14.01,2013-03-14 00:40:00,
2013-03-13 20:43:00,27.4,14.2,30.22,West,262,0.0,2.0,57,0.00,,---,0.00,VWS V14.01,2013-03-14 00:43:00,
2013-03-13 20:45:00,27.3,14.1,30.22,West,278,0.0,9.0,57,0.00,,---,0.00,VWS V14.01,2013-03-14 00:45:00,
2013-03-13 20:48:00,27.3,14.1,30.22,West,269,6.0,6.0,57,0.00,,---,0.00,VWS V14.01,2013-03-14 00:48:00,
2013-03-13 20:50:00,27.3,13.7,30.22,WSW,253,1.0,7.0,56,0.00,,---,0.00,VWS V14.01,2013-03-14 00:50:00,
2013-03-13 20:53:00,27.3,14.5,30.22,SW,224,4.0,5.0,58,0.00,,---,0.00,VWS V14.01,2013-03-14 00:53:00,
2013-03-13 20:55:00,27.2,13.6,30.22,SW,219,0.0,6.0,56,0.00,,---,0.00,VWS V14.01,2013-03-14 00:55:00,
2013-03-13 20:58:00,27.2,14.0,30.22,NNW,328,6.0,6.0,57,0.00,,---,0.00,VWS V14.01,2013-03-14 00:58:00,
2013-03-13 21:00:00,27.1,13.5,30.22,WSW,239,1.0,5.0,56,0.00,,---,0.00,VWS V14.01,2013-03-14 01:00:00,
2013-03-13 21:03:00,27.2,13.6,30.22,West,277,1.0,3.0,56,0.00,,---,0.00,VWS V14.01,2013-03-14 01:03:00,
2013-03-13 21:05:00,27.1,13.5,30.22,WNW,283,0.0,4.0,56,0.00,,---,0.00,VWS V14.01,2013-03-14 01:05:00,
2013-03-13 21:08:00,27.1,13.5,30.22,West,269,2.0,4.0,56,0.00,,---,0.00,VWS V14.01,2013-03-14 01:08:00,
2013-03-13 21:10:00,27.0,13.4,30.22,WNW,293,2.0,5.0,56,0.00,,---,0.00,VWS V14.01,2013-03-14 01:10:00,
2013-03-13 21:13:00,27.0,13.4,30.22,NNW,335,3.0,3.0,56,0.00,,---,0.00,VWS V14.01,2013-03-14 01:13:00,
2013-03-13 21:15:00,26.9,13.3,30.23,WNW,296,3.0,4.0,56,0.00,,---,0.00,VWS V14.01,2013-03-14 01:15:00,
2013-03-13 21:18:00,26.9,13.3,30.23,NNW,331,4.0,4.0,56,0.00,,---,0.00,VWS V14.01,2013-03-14 01:18:00,
2013-03-13 21:20:00,26.7,13.5,30.22,SSW,209,1.0,3.0,57,0.00,,---,0.00,VWS V14.01,2013-03-14 01:20:00,
2013-03-13 21:23:00,26.9,13.7,30.22,NW,306,0.0,3.0,57,0.00,,---,0.00,VWS V14.01,2013-03-14 01:23:00,
2013-03-13 21:25:00,26.6,13.8,30.23,SW,221,1.0,3.0,58,0.00,,---,0.00,VWS V14.01,2013-03-14 01:25:00,
2013-03-13 21:28:00,26.7,13.5,30.23,North,356,1.0,3.0,57,0.00,,---,0.00,VWS V14.01,2013-03-14 01:28:00,
2013-03-13 21:30:00,26.5,13.7,30.23,NW,314,4.0,4.0,58,0.00,,---,0.00,VWS V14.01,2013-03-14 01:30:00,
2013-03-13 21:33:00,26.6,13.8,30.23,WSW,258,0.0,2.0,58,0.00,,---,0.00,VWS V14.01,2013-03-14 01:33:00,
2013-03-13 21:35:00,26.4,14.0,30.23,WNW,300,2.0,4.0,59,0.00,,---,0.00,VWS V14.01,2013-03-14 01:35:00,
2013-03-13 21:38:00,26.5,13.7,30.23,WNW,293,1.0,4.0,58,0.00,,---,0.00,VWS V14.01,2013-03-14 01:38:00,
2013-03-13 21:40:00,26.3,13.9,30.23,WSW,238,2.0,4.0,59,0.00,,---,0.00,VWS V14.01,2013-03-14 01:40:00,
2013-03-13 21:43:00,26.3,13.6,30.23,WSW,239,0.0,2.0,58,0.00,,---,0.00,VWS V14.01,2013-03-14 01:43:00,
2013-03-13 21:45:00,26.2,13.8,30.23,WSW,257,0.0,5.0,59,0.00,,---,0.00,VWS V14.01,2013-03-14 01:45:00,
2013-03-13 21:48:00,26.3,13.9,30.23,West,278,1.0,5.0,59,0.00,,---,0.00,VWS V14.01,2013-03-14 01:48:00,
2013-03-13 21:50:00,26.1,14.1,30.23,SW,229,0.0,3.0,60,0.00,,---,0.00,VWS V14.01,2013-03-14 01:50:00,
2013-03-13 21:53:00,26.2,13.8,30.23,West,265,2.0,2.0,59,0.00,,---,0.00,VWS V14.01,2013-03-14 01:53:00,
2013-03-13 21:55:00,26.0,14.0,30.23,SW,231,1.0,1.0,60,0.00,,---,0.00,VWS V14.01,2013-03-14 01:55:00,
2013-03-13 21:58:00,26.1,14.1,30.23,SW,224,0.0,1.0,60,0.00,,---,0.00,VWS V14.01,2013-03-14 01:58:00,
2013-03-13 22:00:00,25.9,13.9,30.23,WSW,250,0.0,4.0,60,0.00,,---,0.00,VWS V14.01,2013-03-14 02:00:00,
2013-03-13 22:03:00,26.0,14.0,30.23,SW,222,1.0,2.0,60,0.00,,---,0.00,VWS V14.01,2013-03-14 02:03:00,
2013-03-13 22:05:00,25.8,14.2,30.23,SW,228,0.0,2.0,61,0.00,,---,0.00,VWS V14.01,2013-03-14 02:05:00,
2013-03-13 22:08:00,25.9,13.9,30.23,WSW,255,1.0,1.0,60,0.00,,---,0.00,VWS V14.01,2013-03-14 02:08:00,
2013-03-13 22:10:00,25.7,14.1,30.23,WSW,243,0.0,4.0,61,0.00,,---,0.00,VWS V14.01,2013-03-14 02:10:00,
2013-03-13 22:13:00,25.8,14.2,30.23,SSW,194,0.0,3.0,61,0.00,,---,0.00,VWS V14.01,2013-03-14 02:13:00,
2013-03-13 22:15:00,25.7,14.1,30.23,WNW,298,0.0,4.0,61,0.00,,---,0.00,VWS V14.01,2013-03-14 02:15:00,
2013-03-13 22:18:00,25.7,14.1,30.23,SW,236,1.0,3.0,61,0.00,,---,0.00,VWS V14.01,2013-03-14 02:18:00,
2013-03-13 22:20:00,25.7,14.1,30.23,SW,219,0.0,3.0,61,0.00,,---,0.00,VWS V14.01,2013-03-14 02:20:00,
2013-03-13 22:23:00,25.7,14.1,30.23,West,259,0.0,1.0,61,0.00,,---,0.00,VWS V14.01,2013-03-14 02:23:00,
2013-03-13 22:25:00,25.6,14.0,30.23,WSW,255,1.0,3.0,61,0.00,,---,0.00,VWS V14.01,2013-03-14 02:25:00,
2013-03-13 22:28:00,25.7,14.1,30.23,SSW,208,0.0,3.0,61,0.00,,---,0.00,VWS V14.01,2013-03-14 02:28:00,
2013-03-13 22:30:00,25.5,14.3,30.23,SW,225,0.0,2.0,62,0.00,,---,0.00,VWS V14.01,2013-03-14 02:30:00,
2013-03-13 22:33:00,25.6,14.0,30.23,West,262,0.0,2.0,61,0.00,,---,0.00,VWS V14.01,2013-03-14 02:33:00,
2013-03-13 22:35:00,25.4,14.6,30.23,WSW,249,1.0,4.0,63,0.00,,---,0.00,VWS V14.01,2013-03-14 02:35:00,
2013-03-13 22:38:00,25.4,14.2,30.24,WSW,242,4.0,4.0,62,0.00,,---,0.00,VWS V14.01,2013-03-14 02:38:00,
2013-03-13 22:40:00,25.4,14.6,30.23,WSW,239,1.0,4.0,63,0.00,,---,0.00,VWS V14.01,2013-03-14 02:40:00,
2013-03-13 22:43:00,25.4,14.6,30.23,SW,229,3.0,4.0,63,0.00,,---,0.00,VWS V14.01,2013-03-14 02:43:00,
2013-03-13 22:45:00,25.3,14.8,30.23,WSW,240,2.0,3.0,64,0.00,,---,0.00,VWS V14.01,2013-03-14 02:45:00,
2013-03-13 22:48:00,25.4,14.6,30.23,West,259,1.0,2.0,63,0.00,,---,0.00,VWS V14.01,2013-03-14 02:48:00,
2013-03-13 22:50:00,25.3,14.8,30.23,SW,222,1.0,2.0,64,0.00,,---,0.00,VWS V14.01,2013-03-14 02:50:00,
2013-03-13 22:53:00,25.3,14.5,30.24,SSW,205,0.0,2.0,63,0.00,,---,0.00,VWS V14.01,2013-03-14 02:53:00,
2013-03-13 22:55:00,25.1,14.6,30.24,WSW,253,0.0,2.0,64,0.00,,---,0.00,VWS V14.01,2013-03-14 02:55:00,
2013-03-13 22:58:00,25.2,14.8,30.23,SW,222,1.0,2.0,64,0.00,,---,0.00,VWS V14.01,2013-03-14 02:58:00,
2013-03-13 23:00:00,25.0,14.6,30.23,SW,233,0.0,3.0,64,0.00,,---,0.00,VWS V14.01,2013-03-14 03:00:00,
2013-03-13 23:03:00,25.1,14.6,30.24,SW,236,0.0,2.0,64,0.00,,---,0.00,VWS V14.01,2013-03-14 03:03:00,
2013-03-13 23:05:00,24.9,14.8,30.24,SW,228,0.0,2.0,65,0.00,,---,0.00,VWS V14.01,2013-03-14 03:05:00,
2013-03-13 23:08:00,25.0,14.9,30.23,WSW,240,2.0,2.0,65,0.00,,---,0.00,VWS V14.01,2013-03-14 03:08:00,
2013-03-13 23:10:00,24.8,14.7,30.24,SW,215,0.0,2.0,65,0.00,,---,0.00,VWS V14.01,2013-03-14 03:10:00,
2013-03-13 23:13:00,24.9,14.8,30.24,SW,225,0.0,2.0,65,0.00,,---,0.00,VWS V14.01,2013-03-14 03:13:00,
2013-03-13 23:15:00,24.8,14.7,30.24,SW,224,1.0,2.0,65,0.00,,---,0.00,VWS V14.01,2013-03-14 03:15:00,
2013-03-13 23:18:00,24.8,14.7,30.24,SW,229,1.0,1.0,65,0.00,,---,0.00,VWS V14.01,2013-03-14 03:18:00,
2013-03-13 23:20:00,24.7,14.6,30.23,SW,226,0.0,4.0,65,0.00,,---,0.00,VWS V14.01,2013-03-14 03:20:00,
2013-03-13 23:23:00,24.8,15.1,30.24,SW,228,0.0,4.0,66,0.00,,---,0.00,VWS V14.01,2013-03-14 03:23:00,
2013-03-13 23:25:00,24.6,14.5,30.23,SW,214,0.0,1.0,65,0.00,,---,0.00,VWS V14.01,2013-03-14 03:25:00,
2013-03-13 23:28:00,24.6,14.5,30.23,SW,226,0.0,0.0,65,0.00,,---,0.00,VWS V14.01,2013-03-14 03:28:00,
2013-03-13 23:30:00,24.3,14.6,30.23,SW,236,0.0,1.0,66,0.00,,---,0.00,VWS V14.01,2013-03-14 03:30:00,
2013-03-13 23:33:00,24.5,14.8,30.23,SW,214,0.0,0.0,66,0.00,,---,0.00,VWS V14.01,2013-03-14 03:33:00,
2013-03-13 23:35:00,24.2,14.8,30.23,SW,232,0.0,2.0,67,0.00,,---,0.00,VWS V14.01,2013-03-14 03:35:00,
2013-03-13 23:38:00,24.3,14.6,30.23,SW,224,0.0,1.0,66,0.00,,---,0.00,VWS V14.01,2013-03-14 03:38:00,
2013-03-13 23:40:00,24.2,15.2,30.23,SW,214,0.0,3.0,68,0.00,,---,0.00,VWS V14.01,2013-03-14 03:40:00,
2013-03-13 23:43:00,24.2,14.8,30.23,SSW,212,0.0,2.0,67,0.00,,---,0.00,VWS V14.01,2013-03-14 03:43:00,
2013-03-13 23:45:00,24.1,14.7,30.23,SW,224,1.0,3.0,67,0.00,,---,0.00,VWS V14.01,2013-03-14 03:45:00,
2013-03-13 23:48:00,24.2,15.2,30.23,SW,215,0.0,2.0,68,0.00,,---,0.00,VWS V14.01,2013-03-14 03:48:00,
2013-03-13 23:50:00,24.2,15.2,30.23,SW,234,1.0,4.0,68,0.00,,---,0.00,VWS V14.01,2013-03-14 03:50:00,
2013-03-13 23:53:00,24.2,15.2,30.23,WSW,253,0.0,2.0,68,0.00,,---,0.00,VWS V14.01,2013-03-14 03:53:00,
2013-03-13 23:55:00,24.1,15.1,30.23,SW,219,0.0,2.0,68,0.00,,---,0.00,VWS V14.01,2013-03-14 03:55:00,
2013-03-13 23:58:00,24.2,15.2,30.23,SW,219,2.0,2.0,68,0.00,,---,0.00,VWS V14.01,2013-03-14 03:58:00,